Chopin, Louisiana
Current Conditions -  °F | °C
As of 9:53 PM on Thursday 18 Dec 2014 (Local Time) from KAEX Reporting Station
Overcast Overcast  
Wind Chill: 52°   Ceiling: 900
Heat Index: 52°   Visibility: 8mi
Dew Point: 49°   Wind: 5mph
Humidity: 89%   Direction: 40°NE
Pressure: 30.13"   Gusts: NA
Location:  31.4254°N, 92.7765°W
Report Text: KAEX 190353Z 04004KT 8SM OVC009 11/09 A3013 RMK AO2 CIG 006V012 SLP209 T01110094
Loading
Personal Weather Stations






























Interactive Weather Map New forecast layout! Learn more

10-Day Weather Forecast

Advertisements
Track Severe Weather on mobile